sensor_id;sensor_type;location;lat;lon;timestamp;P1;durP1;ratioP1;P2;durP2;ratioP2
6029;SDS011;3043;42.682;23.376;2023-02-03T00:01:10;8.40;;;3.97;;
6029;SDS011;3043;42.682;23.376;2023-02-03T00:03:35;7.43;;;3.97;;
6029;SDS011;3043;42.682;23.376;2023-02-03T00:06:01;9.37;;;4.30;;
6029;SDS011;3043;42.682;23.376;2023-02-03T00:08:27;8.77;;;4.10;;
6029;SDS011;3043;42.682;23.376;2023-02-03T00:10:54;7.33;;;4.17;;
6029;SDS011;3043;42.682;23.376;2023-02-03T00:13:19;8.77;;;4.40;;
6029;SDS011;3043;42.682;23.376;2023-02-03T00:15:45;7.97;;;4.37;;
6029;SDS011;3043;42.682;23.376;2023-02-03T00:18:11;11.37;;;5.00;;
6029;SDS011;3043;42.682;23.376;2023-02-03T00:20:36;6.93;;;4.10;;
6029;SDS011;3043;42.682;23.376;2023-02-03T00:23:02;9.27;;;4.47;;
6029;SDS011;3043;42.682;23.376;2023-02-03T00:25:29;7.47;;;4.53;;
6029;SDS011;3043;42.682;23.376;2023-02-03T00:27:54;9.60;;;4.33;;
6029;SDS011;3043;42.682;23.376;2023-02-03T00:30:20;7.97;;;5.07;;
6029;SDS011;3043;42.682;23.376;2023-02-03T00:32:45;10.03;;;4.57;;
6029;SDS011;3043;42.682;23.376;2023-02-03T00:35:11;8.77;;;4.70;;
6029;SDS011;3043;42.682;23.376;2023-02-03T00:37:36;7.53;;;4.93;;
6029;SDS011;3043;42.682;23.376;2023-02-03T00:40:01;7.70;;;4.30;;
6029;SDS011;3043;42.682;23.376;2023-02-03T00:42:27;7.40;;;4.20;;
6029;SDS011;3043;42.682;23.376;2023-02-03T00:44:52;7.43;;;4.37;;
6029;SDS011;3043;42.682;23.376;2023-02-03T00:47:18;9.13;;;4.80;;
6029;SDS011;3043;42.682;23.376;2023-02-03T00:49:43;7.90;;;4.47;;
6029;SDS011;3043;42.682;23.376;2023-02-03T00:52:08;10.87;;;4.70;;
6029;SDS011;3043;42.682;23.376;2023-02-03T00:54:34;9.70;;;5.07;;
6029;SDS011;3043;42.682;23.376;2023-02-03T00:56:59;8.50;;;5.30;;
6029;SDS011;3043;42.682;23.376;2023-02-03T00:59:25;8.47;;;5.13;;
6029;SDS011;3043;42.682;23.376;2023-02-03T01:01:50;7.60;;;5.00;;
6029;SDS011;3043;42.682;23.376;2023-02-03T01:04:16;8.60;;;5.17;;
6029;SDS011;3043;42.682;23.376;2023-02-03T01:06:41;9.10;;;5.00;;
6029;SDS011;3043;42.682;23.376;2023-02-03T01:09:06;9.17;;;5.47;;
6029;SDS011;3043;42.682;23.376;2023-02-03T01:11:32;7.20;;;4.67;;
6029;SDS011;3043;42.682;23.376;2023-02-03T01:13:57;8.17;;;5.07;;
6029;SDS011;3043;42.682;23.376;2023-02-03T01:16:26;8.53;;;6.00;;
6029;SDS011;3043;42.682;23.376;2023-02-03T01:18:54;8.77;;;4.70;;
6029;SDS011;3043;42.682;23.376;2023-02-03T01:21:20;7.17;;;4.47;;
6029;SDS011;3043;42.682;23.376;2023-02-03T01:23:48;7.70;;;4.23;;
6029;SDS011;3043;42.682;23.376;2023-02-03T01:26:15;7.93;;;4.40;;
6029;SDS011;3043;42.682;23.376;2023-02-03T01:28:42;6.87;;;3.97;;
6029;SDS011;3043;42.682;23.376;2023-02-03T01:31:09;6.60;;;4.00;;
6029;SDS011;3043;42.682;23.376;2023-02-03T01:33:34;7.87;;;3.70;;
6029;SDS011;3043;42.682;23.376;2023-02-03T01:36:00;7.73;;;3.93;;
6029;SDS011;3043;42.682;23.376;2023-02-03T01:38:26;6.07;;;3.77;;
6029;SDS011;3043;42.682;23.376;2023-02-03T01:40:51;8.30;;;4.13;;
6029;SDS011;3043;42.682;23.376;2023-02-03T01:43:27;6.93;;;3.97;;
6029;SDS011;3043;42.682;23.376;2023-02-03T01:45:57;9.53;;;3.60;;
6029;SDS011;3043;42.682;23.376;2023-02-03T01:48:26;6.07;;;3.40;;
6029;SDS011;3043;42.682;23.376;2023-02-03T01:51:00;5.93;;;3.50;;
6029;SDS011;3043;42.682;23.376;2023-02-03T01:53:28;7.43;;;3.97;;
6029;SDS011;3043;42.682;23.376;2023-02-03T01:55:54;6.50;;;3.40;;
6029;SDS011;3043;42.682;23.376;2023-02-03T01:58:22;5.77;;;3.20;;
6029;SDS011;3043;42.682;23.376;2023-02-03T02:00:51;5.90;;;3.43;;
6029;SDS011;3043;42.682;23.376;2023-02-03T02:03:17;6.57;;;3.30;;
6029;SDS011;3043;42.682;23.376;2023-02-03T02:05:48;5.90;;;3.20;;
6029;SDS011;3043;42.682;23.376;2023-02-03T02:08:20;7.70;;;3.40;;
6029;SDS011;3043;42.682;23.376;2023-02-03T02:10:47;5.60;;;3.00;;
6029;SDS011;3043;42.682;23.376;2023-02-03T02:13:13;6.33;;;3.57;;
6029;SDS011;3043;42.682;23.376;2023-02-03T02:15:49;6.37;;;3.60;;
6029;SDS011;3043;42.682;23.376;2023-02-03T02:21:35;5.50;;;3.20;;
6029;SDS011;3043;42.682;23.376;2023-02-03T02:37:58;5.80;;;3.20;;
6029;SDS011;3043;42.682;23.376;2023-02-03T02:40:35;6.87;;;3.67;;
6029;SDS011;3043;42.682;23.376;2023-02-03T02:43:27;6.83;;;3.93;;
6029;SDS011;3043;42.682;23.376;2023-02-03T02:46:10;6.97;;;4.03;;
6029;SDS011;3043;42.682;23.376;2023-02-03T02:51:10;4.93;;;3.20;;
6029;SDS011;3043;42.682;23.376;2023-02-03T02:54:12;6.03;;;3.77;;
6029;SDS011;3043;42.682;23.376;2023-02-03T02:56:31;6.40;;;3.80;;
6029;SDS011;3043;42.682;23.376;2023-02-03T02:59:00;5.50;;;3.70;;
6029;SDS011;3043;42.682;23.376;2023-02-03T03:01:28;6.80;;;3.87;;
6029;SDS011;3043;42.682;23.376;2023-02-03T03:03:54;5.93;;;3.67;;
6029;SDS011;3043;42.682;23.376;2023-02-03T03:06:23;6.00;;;3.27;;
6029;SDS011;3043;42.682;23.376;2023-02-03T03:11:23;6.43;;;3.80;;
6029;SDS011;3043;42.682;23.376;2023-02-03T03:13:51;6.87;;;3.90;;
6029;SDS011;3043;42.682;23.376;2023-02-03T03:16:19;9.87;;;4.03;;
6029;SDS011;3043;42.682;23.376;2023-02-03T03:18:49;6.37;;;3.70;;
6029;SDS011;3043;42.682;23.376;2023-02-03T03:21:26;6.17;;;3.60;;
6029;SDS011;3043;42.682;23.376;2023-02-03T03:24:00;6.57;;;3.70;;
6029;SDS011;3043;42.682;23.376;2023-02-03T03:26:31;5.87;;;3.70;;
6029;SDS011;3043;42.682;23.376;2023-02-03T03:29:12;7.07;;;3.40;;
6029;SDS011;3043;42.682;23.376;2023-02-03T03:31:44;7.10;;;3.67;;
6029;SDS011;3043;42.682;23.376;2023-02-03T03:34:11;6.20;;;3.67;;
6029;SDS011;3043;42.682;23.376;2023-02-03T03:44:33;6.47;;;3.80;;
6029;SDS011;3043;42.682;23.376;2023-02-03T03:49:40;6.30;;;3.57;;
6029;SDS011;3043;42.682;23.376;2023-02-03T03:52:09;6.83;;;3.83;;
6029;SDS011;3043;42.682;23.376;2023-02-03T03:54:39;5.33;;;3.40;;
6029;SDS011;3043;42.682;23.376;2023-02-03T03:59:39;6.73;;;3.27;;
6029;SDS011;3043;42.682;23.376;2023-02-03T04:02:08;5.70;;;3.20;;
6029;SDS011;3043;42.682;23.376;2023-02-03T04:04:35;7.37;;;3.43;;
6029;SDS011;3043;42.682;23.376;2023-02-03T04:07:02;4.97;;;3.20;;
6029;SDS011;3043;42.682;23.376;2023-02-03T04:09:28;10.87;;;3.50;;
6029;SDS011;3043;42.682;23.376;2023-02-03T04:11:53;6.53;;;3.83;;
6029;SDS011;3043;42.682;23.376;2023-02-03T04:14:30;6.80;;;3.57;;
6029;SDS011;3043;42.682;23.376;2023-02-03T04:16:58;5.57;;;3.30;;
6029;SDS011;3043;42.682;23.376;2023-02-03T04:19:24;5.93;;;3.70;;
6029;SDS011;3043;42.682;23.376;2023-02-03T04:21:50;8.00;;;3.33;;
6029;SDS011;3043;42.682;23.376;2023-02-03T04:24:15;6.40;;;3.40;;
6029;SDS011;3043;42.682;23.376;2023-02-03T04:26:41;6.63;;;3.37;;
6029;SDS011;3043;42.682;23.376;2023-02-03T04:29:07;5.70;;;3.40;;
6029;SDS011;3043;42.682;23.376;2023-02-03T04:31:32;5.37;;;3.33;;
6029;SDS011;3043;42.682;23.376;2023-02-03T04:34:01;6.77;;;3.80;;
6029;SDS011;3043;42.682;23.376;2023-02-03T04:36:27;8.00;;;3.67;;
6029;SDS011;3043;42.682;23.376;2023-02-03T04:38:52;4.93;;;3.00;;
6029;SDS011;3043;42.682;23.376;2023-02-03T04:41:17;5.97;;;3.60;;
6029;SDS011;3043;42.682;23.376;2023-02-03T04:43:43;7.40;;;3.60;;
6029;SDS011;3043;42.682;23.376;2023-02-03T04:46:08;7.17;;;3.93;;
6029;SDS011;3043;42.682;23.376;2023-02-03T04:48:34;6.77;;;4.23;;
6029;SDS011;3043;42.682;23.376;2023-02-03T04:51:00;5.93;;;3.60;;
6029;SDS011;3043;42.682;23.376;2023-02-03T04:53:28;6.40;;;4.03;;
6029;SDS011;3043;42.682;23.376;2023-02-03T04:55:54;7.10;;;3.70;;
6029;SDS011;3043;42.682;23.376;2023-02-03T04:58:19;7.57;;;4.00;;
6029;SDS011;3043;42.682;23.376;2023-02-03T05:00:45;5.80;;;3.80;;
6029;SDS011;3043;42.682;23.376;2023-02-03T05:03:10;6.00;;;3.60;;
6029;SDS011;3043;42.682;23.376;2023-02-03T05:05:36;6.30;;;4.07;;
6029;SDS011;3043;42.682;23.376;2023-02-03T05:08:01;6.20;;;4.07;;
6029;SDS011;3043;42.682;23.376;2023-02-03T05:10:27;7.40;;;4.53;;
6029;SDS011;3043;42.682;23.376;2023-02-03T05:12:52;7.17;;;3.93;;
6029;SDS011;3043;42.682;23.376;2023-02-03T05:15:18;6.33;;;3.73;;
6029;SDS011;3043;42.682;23.376;2023-02-03T05:17:43;7.57;;;4.30;;
6029;SDS011;3043;42.682;23.376;2023-02-03T05:20:09;7.40;;;4.33;;
6029;SDS011;3043;42.682;23.376;2023-02-03T05:22:35;5.83;;;3.87;;
6029;SDS011;3043;42.682;23.376;2023-02-03T05:25:00;7.63;;;4.50;;
6029;SDS011;3043;42.682;23.376;2023-02-03T05:27:27;6.40;;;4.07;;
6029;SDS011;3043;42.682;23.376;2023-02-03T05:29:52;6.30;;;4.00;;
6029;SDS011;3043;42.682;23.376;2023-02-03T05:32:21;8.20;;;4.43;;
6029;SDS011;3043;42.682;23.376;2023-02-03T05:34:46;7.70;;;4.27;;
6029;SDS011;3043;42.682;23.376;2023-02-03T05:37:11;8.30;;;4.50;;
6029;SDS011;3043;42.682;23.376;2023-02-03T05:39:37;6.17;;;4.17;;
6029;SDS011;3043;42.682;23.376;2023-02-03T05:42:03;7.03;;;4.43;;
6029;SDS011;3043;42.682;23.376;2023-02-03T05:44:29;7.27;;;4.07;;
6029;SDS011;3043;42.682;23.376;2023-02-03T05:46:56;8.57;;;4.47;;
6029;SDS011;3043;42.682;23.376;2023-02-03T05:49:23;8.90;;;4.43;;
6029;SDS011;3043;42.682;23.376;2023-02-03T05:51:49;6.63;;;4.23;;
6029;SDS011;3043;42.682;23.376;2023-02-03T05:54:16;7.37;;;4.67;;
6029;SDS011;3043;42.682;23.376;2023-02-03T05:56:42;7.37;;;4.40;;
6029;SDS011;3043;42.682;23.376;2023-02-03T05:59:07;8.37;;;5.13;;
6029;SDS011;3043;42.682;23.376;2023-02-03T06:01:33;6.60;;;4.70;;
6029;SDS011;3043;42.682;23.376;2023-02-03T06:03:59;7.57;;;4.70;;
6029;SDS011;3043;42.682;23.376;2023-02-03T06:06:26;11.47;;;4.70;;
6029;SDS011;3043;42.682;23.376;2023-02-03T06:08:57;7.07;;;4.63;;
6029;SDS011;3043;42.682;23.376;2023-02-03T06:11:23;8.53;;;5.27;;
6029;SDS011;3043;42.682;23.376;2023-02-03T06:13:49;7.43;;;4.60;;
6029;SDS011;3043;42.682;23.376;2023-02-03T06:16:15;8.40;;;4.47;;
6029;SDS011;3043;42.682;23.376;2023-02-03T06:18:40;7.73;;;4.90;;
6029;SDS011;3043;42.682;23.376;2023-02-03T06:21:06;7.40;;;5.00;;
6029;SDS011;3043;42.682;23.376;2023-02-03T06:23:31;9.63;;;6.60;;
6029;SDS011;3043;42.682;23.376;2023-02-03T06:25:57;9.30;;;5.20;;
6029;SDS011;3043;42.682;23.376;2023-02-03T06:28:24;7.77;;;5.23;;
6029;SDS011;3043;42.682;23.376;2023-02-03T06:30:50;7.27;;;4.90;;
6029;SDS011;3043;42.682;23.376;2023-02-03T06:33:17;7.57;;;5.10;;
6029;SDS011;3043;42.682;23.376;2023-02-03T06:35:43;7.30;;;4.87;;
6029;SDS011;3043;42.682;23.376;2023-02-03T06:38:08;8.10;;;5.23;;
6029;SDS011;3043;42.682;23.376;2023-02-03T06:40:34;7.43;;;4.80;;
6029;SDS011;3043;42.682;23.376;2023-02-03T06:42:59;10.13;;;6.43;;
6029;SDS011;3043;42.682;23.376;2023-02-03T06:45:24;13.90;;;7.93;;
6029;SDS011;3043;42.682;23.376;2023-02-03T06:47:50;8.80;;;5.03;;
6029;SDS011;3043;42.682;23.376;2023-02-03T06:50:16;7.70;;;4.83;;
6029;SDS011;3043;42.682;23.376;2023-02-03T06:52:41;6.93;;;4.40;;
6029;SDS011;3043;42.682;23.376;2023-02-03T06:55:07;7.03;;;3.93;;
6029;SDS011;3043;42.682;23.376;2023-02-03T06:57:33;7.73;;;4.40;;
6029;SDS011;3043;42.682;23.376;2023-02-03T06:59:58;6.03;;;3.73;;
6029;SDS011;3043;42.682;23.376;2023-02-03T07:02:24;5.80;;;3.57;;
6029;SDS011;3043;42.682;23.376;2023-02-03T07:04:49;7.13;;;3.90;;
6029;SDS011;3043;42.682;23.376;2023-02-03T07:07:15;10.30;;;4.60;;
6029;SDS011;3043;42.682;23.376;2023-02-03T07:09:41;6.17;;;3.43;;
6029;SDS011;3043;42.682;23.376;2023-02-03T07:12:06;6.57;;;3.43;;
6029;SDS011;3043;42.682;23.376;2023-02-03T07:14:33;6.50;;;3.50;;
6029;SDS011;3043;42.682;23.376;2023-02-03T07:17:03;7.03;;;3.53;;
6029;SDS011;3043;42.682;23.376;2023-02-03T07:19:29;6.43;;;3.60;;
6029;SDS011;3043;42.682;23.376;2023-02-03T07:21:55;6.27;;;3.33;;
6029;SDS011;3043;42.682;23.376;2023-02-03T07:24:20;7.20;;;4.33;;
6029;SDS011;3043;42.682;23.376;2023-02-03T07:26:46;5.87;;;3.53;;
6029;SDS011;3043;42.682;23.376;2023-02-03T07:29:11;7.30;;;3.80;;
6029;SDS011;3043;42.682;23.376;2023-02-03T07:31:37;6.77;;;4.00;;
6029;SDS011;3043;42.682;23.376;2023-02-03T07:34:02;7.50;;;4.37;;
6029;SDS011;3043;42.682;23.376;2023-02-03T07:36:28;8.03;;;4.70;;
6029;SDS011;3043;42.682;23.376;2023-02-03T07:38:54;8.37;;;4.20;;
6029;SDS011;3043;42.682;23.376;2023-02-03T07:41:19;6.80;;;3.63;;
6029;SDS011;3043;42.682;23.376;2023-02-03T07:43:45;7.67;;;4.60;;
6029;SDS011;3043;42.682;23.376;2023-02-03T07:46:11;8.13;;;3.97;;
6029;SDS011;3043;42.682;23.376;2023-02-03T07:48:37;6.00;;;3.30;;
6029;SDS011;3043;42.682;23.376;2023-02-03T07:51:02;6.43;;;4.00;;
6029;SDS011;3043;42.682;23.376;2023-02-03T07:53:28;6.57;;;3.43;;
6029;SDS011;3043;42.682;23.376;2023-02-03T07:55:54;5.83;;;3.23;;
6029;SDS011;3043;42.682;23.376;2023-02-03T07:58:23;6.53;;;3.50;;
6029;SDS011;3043;42.682;23.376;2023-02-03T08:00:48;6.73;;;3.23;;
6029;SDS011;3043;42.682;23.376;2023-02-03T08:03:13;7.07;;;4.13;;
6029;SDS011;3043;42.682;23.376;2023-02-03T08:05:39;9.60;;;4.23;;
6029;SDS011;3043;42.682;23.376;2023-02-03T08:08:04;5.80;;;3.23;;
6029;SDS011;3043;42.682;23.376;2023-02-03T08:10:30;6.53;;;3.50;;
6029;SDS011;3043;42.682;23.376;2023-02-03T08:12:55;5.30;;;2.90;;
6029;SDS011;3043;42.682;23.376;2023-02-03T08:15:21;8.40;;;4.33;;
6029;SDS011;3043;42.682;23.376;2023-02-03T08:17:47;11.30;;;6.43;;
6029;SDS011;3043;42.682;23.376;2023-02-03T08:20:13;15.07;;;7.87;;
6029;SDS011;3043;42.682;23.376;2023-02-03T08:22:40;10.83;;;5.80;;
6029;SDS011;3043;42.682;23.376;2023-02-03T08:25:06;6.20;;;3.67;;
6029;SDS011;3043;42.682;23.376;2023-02-03T08:27:32;9.07;;;5.50;;
6029;SDS011;3043;42.682;23.376;2023-02-03T08:29:58;8.10;;;3.63;;
6029;SDS011;3043;42.682;23.376;2023-02-03T08:32:24;12.03;;;6.67;;
6029;SDS011;3043;42.682;23.376;2023-02-03T08:34:50;9.73;;;6.10;;
6029;SDS011;3043;42.682;23.376;2023-02-03T08:37:17;8.70;;;4.17;;
6029;SDS011;3043;42.682;23.376;2023-02-03T08:39:44;11.27;;;6.03;;
6029;SDS011;3043;42.682;23.376;2023-02-03T08:42:10;5.13;;;3.00;;
6029;SDS011;3043;42.682;23.376;2023-02-03T08:44:35;5.80;;;3.20;;
6029;SDS011;3043;42.682;23.376;2023-02-03T08:47:03;4.97;;;2.97;;
6029;SDS011;3043;42.682;23.376;2023-02-03T08:49:29;8.67;;;3.73;;
6029;SDS011;3043;42.682;23.376;2023-02-03T08:51:55;6.30;;;3.00;;
6029;SDS011;3043;42.682;23.376;2023-02-03T08:54:21;7.63;;;3.70;;
6029;SDS011;3043;42.682;23.376;2023-02-03T08:56:47;5.30;;;2.93;;
6029;SDS011;3043;42.682;23.376;2023-02-03T08:59:13;4.33;;;2.57;;
6029;SDS011;3043;42.682;23.376;2023-02-03T09:01:39;7.37;;;3.10;;
6029;SDS011;3043;42.682;23.376;2023-02-03T09:04:06;7.97;;;4.93;;
6029;SDS011;3043;42.682;23.376;2023-02-03T09:06:33;5.97;;;3.23;;
6029;SDS011;3043;42.682;23.376;2023-02-03T09:08:59;5.00;;;2.77;;
6029;SDS011;3043;42.682;23.376;2023-02-03T09:11:24;4.73;;;2.90;;
6029;SDS011;3043;42.682;23.376;2023-02-03T09:13:50;5.33;;;2.80;;
6029;SDS011;3043;42.682;23.376;2023-02-03T09:16:16;5.37;;;2.80;;
6029;SDS011;3043;42.682;23.376;2023-02-03T09:18:43;6.20;;;3.10;;
6029;SDS011;3043;42.682;23.376;2023-02-03T09:21:10;7.50;;;3.33;;
6029;SDS011;3043;42.682;23.376;2023-02-03T09:23:37;7.97;;;3.40;;
6029;SDS011;3043;42.682;23.376;2023-02-03T09:26:04;7.30;;;3.97;;
6029;SDS011;3043;42.682;23.376;2023-02-03T09:28:37;5.20;;;2.60;;
6029;SDS011;3043;42.682;23.376;2023-02-03T09:31:04;5.13;;;2.97;;
6029;SDS011;3043;42.682;23.376;2023-02-03T09:33:32;12.40;;;3.03;;
6029;SDS011;3043;42.682;23.376;2023-02-03T09:35:58;6.93;;;3.17;;
6029;SDS011;3043;42.682;23.376;2023-02-03T09:38:24;4.63;;;2.57;;
6029;SDS011;3043;42.682;23.376;2023-02-03T09:40:52;5.93;;;3.20;;
6029;SDS011;3043;42.682;23.376;2023-02-03T09:46:29;5.07;;;2.70;;
6029;SDS011;3043;42.682;23.376;2023-02-03T09:49:11;5.53;;;2.80;;
6029;SDS011;3043;42.682;23.376;2023-02-03T09:51:47;8.40;;;3.03;;
6029;SDS011;3043;42.682;23.376;2023-02-03T09:54:22;8.30;;;3.37;;
6029;SDS011;3043;42.682;23.376;2023-02-03T09:56:55;5.03;;;2.87;;
6029;SDS011;3043;42.682;23.376;2023-02-03T09:59:24;6.93;;;2.97;;
6029;SDS011;3043;42.682;23.376;2023-02-03T10:02:16;5.90;;;3.00;;
6029;SDS011;3043;42.682;23.376;2023-02-03T10:04:50;4.47;;;2.40;;
6029;SDS011;3043;42.682;23.376;2023-02-03T10:10:20;4.57;;;2.67;;
6029;SDS011;3043;42.682;23.376;2023-02-03T10:13:04;7.60;;;2.67;;
6029;SDS011;3043;42.682;23.376;2023-02-03T10:18:14;5.33;;;2.90;;
6029;SDS011;3043;42.682;23.376;2023-02-03T10:20:49;5.63;;;2.80;;
6029;SDS011;3043;42.682;23.376;2023-02-03T10:23:23;4.13;;;2.40;;
6029;SDS011;3043;42.682;23.376;2023-02-03T10:25:54;5.20;;;2.70;;
6029;SDS011;3043;42.682;23.376;2023-02-03T10:28:25;5.47;;;2.63;;
6029;SDS011;3043;42.682;23.376;2023-02-03T10:30:56;5.10;;;2.57;;
6029;SDS011;3043;42.682;23.376;2023-02-03T10:33:27;4.80;;;2.60;;
6029;SDS011;3043;42.682;23.376;2023-02-03T10:41:23;5.70;;;2.90;;
6029;SDS011;3043;42.682;23.376;2023-02-03T10:43:48;5.27;;;2.60;;
6029;SDS011;3043;42.682;23.376;2023-02-03T10:46:37;4.20;;;2.50;;
6029;SDS011;3043;42.682;23.376;2023-02-03T10:49:03;5.07;;;2.50;;
6029;SDS011;3043;42.682;23.376;2023-02-03T10:51:50;6.87;;;2.63;;
6029;SDS011;3043;42.682;23.376;2023-02-03T10:57:11;5.30;;;2.60;;
6029;SDS011;3043;42.682;23.376;2023-02-03T10:59:48;5.40;;;2.80;;
6029;SDS011;3043;42.682;23.376;2023-02-03T11:02:21;8.57;;;2.93;;
6029;SDS011;3043;42.682;23.376;2023-02-03T11:04:47;6.23;;;2.70;;
6029;SDS011;3043;42.682;23.376;2023-02-03T11:07:25;5.67;;;2.50;;
6029;SDS011;3043;42.682;23.376;2023-02-03T11:09:54;5.00;;;2.00;;
6029;SDS011;3043;42.682;23.376;2023-02-03T11:12:19;4.00;;;2.20;;
6029;SDS011;3043;42.682;23.376;2023-02-03T11:14:49;5.50;;;2.50;;
6029;SDS011;3043;42.682;23.376;2023-02-03T11:17:23;6.43;;;2.60;;
6029;SDS011;3043;42.682;23.376;2023-02-03T11:19:52;6.07;;;3.17;;
6029;SDS011;3043;42.682;23.376;2023-02-03T11:22:29;3.93;;;2.70;;
6029;SDS011;3043;42.682;23.376;2023-02-03T11:25:03;5.80;;;3.07;;
6029;SDS011;3043;42.682;23.376;2023-02-03T11:27:40;4.80;;;2.60;;
6029;SDS011;3043;42.682;23.376;2023-02-03T11:30:39;5.90;;;2.70;;
6029;SDS011;3043;42.682;23.376;2023-02-03T11:33:00;5.33;;;2.77;;
6029;SDS011;3043;42.682;23.376;2023-02-03T11:35:27;4.27;;;2.60;;
6029;SDS011;3043;42.682;23.376;2023-02-03T11:37:56;4.00;;;2.50;;
6029;SDS011;3043;42.682;23.376;2023-02-03T11:40:24;4.73;;;2.63;;
6029;SDS011;3043;42.682;23.376;2023-02-03T11:47:48;5.83;;;3.07;;
6029;SDS011;3043;42.682;23.376;2023-02-03T11:51:01;6.40;;;3.10;;
6029;SDS011;3043;42.682;23.376;2023-02-03T12:23:29;6.13;;;2.60;;
6029;SDS011;3043;42.682;23.376;2023-02-03T12:28:44;7.10;;;2.40;;
6029;SDS011;3043;42.682;23.376;2023-02-03T12:34:54;5.20;;;2.23;;
6029;SDS011;3043;42.682;23.376;2023-02-03T12:37:29;3.80;;;2.60;;
6029;SDS011;3043;42.682;23.376;2023-02-03T12:41:03;6.10;;;2.37;;
6029;SDS011;3043;42.682;23.376;2023-02-03T12:45:51;3.80;;;1.90;;
6029;SDS011;3043;42.682;23.376;2023-02-03T12:48:24;2.80;;;2.10;;
6029;SDS011;3043;42.682;23.376;2023-02-03T12:51:02;4.10;;;2.70;;
6029;SDS011;3043;42.682;23.376;2023-02-03T12:53:35;5.97;;;3.00;;
6029;SDS011;3043;42.682;23.376;2023-02-03T12:56:10;4.67;;;2.47;;
6029;SDS011;3043;42.682;23.376;2023-02-03T12:58:40;6.87;;;3.10;;
6029;SDS011;3043;42.682;23.376;2023-02-03T13:01:25;4.43;;;2.30;;
6029;SDS011;3043;42.682;23.376;2023-02-03T13:04:09;5.43;;;2.67;;
6029;SDS011;3043;42.682;23.376;2023-02-03T13:09:37;5.90;;;2.80;;
6029;SDS011;3043;42.682;23.376;2023-02-03T13:12:06;5.50;;;2.60;;
6029;SDS011;3043;42.682;23.376;2023-02-03T13:17:56;5.87;;;2.63;;
6029;SDS011;3043;42.682;23.376;2023-02-03T13:20:20;4.53;;;2.53;;
6029;SDS011;3043;42.682;23.376;2023-02-03T13:22:49;7.10;;;3.40;;
6029;SDS011;3043;42.682;23.376;2023-02-03T13:25:25;5.30;;;2.73;;
6029;SDS011;3043;42.682;23.376;2023-02-03T13:30:52;6.20;;;3.13;;
6029;SDS011;3043;42.682;23.376;2023-02-03T13:47:38;6.40;;;3.43;;
6029;SDS011;3043;42.682;23.376;2023-02-03T13:50:16;6.03;;;2.90;;
6029;SDS011;3043;42.682;23.376;2023-02-03T13:52:51;6.70;;;3.30;;
6029;SDS011;3043;42.682;23.376;2023-02-03T13:55:32;6.37;;;3.50;;
6029;SDS011;3043;42.682;23.376;2023-02-03T13:58:01;5.80;;;3.10;;
6029;SDS011;3043;42.682;23.376;2023-02-03T14:05:54;5.03;;;3.43;;
6029;SDS011;3043;42.682;23.376;2023-02-03T14:13:52;6.20;;;4.07;;
6029;SDS011;3043;42.682;23.376;2023-02-03T14:16:24;8.40;;;4.27;;
6029;SDS011;3043;42.682;23.376;2023-02-03T14:18:49;7.30;;;3.77;;
6029;SDS011;3043;42.682;23.376;2023-02-03T14:21:19;6.97;;;3.53;;
6029;SDS011;3043;42.682;23.376;2023-02-03T14:23:54;7.70;;;4.30;;
6029;SDS011;3043;42.682;23.376;2023-02-03T14:26:31;7.00;;;4.47;;
6029;SDS011;3043;42.682;23.376;2023-02-03T14:29:02;10.03;;;5.23;;
6029;SDS011;3043;42.682;23.376;2023-02-03T14:31:28;10.77;;;5.70;;
6029;SDS011;3043;42.682;23.376;2023-02-03T14:41:45;7.80;;;3.77;;
6029;SDS011;3043;42.682;23.376;2023-02-03T14:58:20;7.93;;;3.77;;
6029;SDS011;3043;42.682;23.376;2023-02-03T15:00:46;8.13;;;3.73;;
6029;SDS011;3043;42.682;23.376;2023-02-03T15:03:17;6.73;;;3.30;;
6029;SDS011;3043;42.682;23.376;2023-02-03T15:08:33;6.07;;;3.37;;
6029;SDS011;3043;42.682;23.376;2023-02-03T15:11:26;5.80;;;3.27;;
6029;SDS011;3043;42.682;23.376;2023-02-03T15:13:55;7.33;;;3.30;;
6029;SDS011;3043;42.682;23.376;2023-02-03T15:16:39;5.93;;;3.43;;
6029;SDS011;3043;42.682;23.376;2023-02-03T15:19:15;6.93;;;3.03;;
6029;SDS011;3043;42.682;23.376;2023-02-03T15:21:42;9.27;;;3.40;;
6029;SDS011;3043;42.682;23.376;2023-02-03T15:24:11;5.80;;;3.50;;
6029;SDS011;3043;42.682;23.376;2023-02-03T15:26:43;10.40;;;3.63;;
6029;SDS011;3043;42.682;23.376;2023-02-03T15:29:16;7.93;;;3.90;;
6029;SDS011;3043;42.682;23.376;2023-02-03T15:31:46;6.93;;;3.70;;
6029;SDS011;3043;42.682;23.376;2023-02-03T15:34:25;10.23;;;4.73;;
6029;SDS011;3043;42.682;23.376;2023-02-03T15:36:58;7.53;;;3.97;;
6029;SDS011;3043;42.682;23.376;2023-02-03T15:39:45;9.07;;;4.13;;
6029;SDS011;3043;42.682;23.376;2023-02-03T15:44:56;8.97;;;4.00;;
6029;SDS011;3043;42.682;23.376;2023-02-03T15:47:53;8.80;;;4.37;;
6029;SDS011;3043;42.682;23.376;2023-02-03T15:51:14;11.40;;;4.60;;
6029;SDS011;3043;42.682;23.376;2023-02-03T15:59:02;10.23;;;5.47;;
6029;SDS011;3043;42.682;23.376;2023-02-03T16:01:30;8.90;;;4.83;;
6029;SDS011;3043;42.682;23.376;2023-02-03T16:03:56;10.10;;;5.20;;
6029;SDS011;3043;42.682;23.376;2023-02-03T16:06:30;8.73;;;4.30;;
6029;SDS011;3043;42.682;23.376;2023-02-03T16:09:00;8.20;;;4.57;;
6029;SDS011;3043;42.682;23.376;2023-02-03T16:11:36;10.30;;;4.27;;
6029;SDS011;3043;42.682;23.376;2023-02-03T16:14:03;6.87;;;4.10;;
6029;SDS011;3043;42.682;23.376;2023-02-03T16:19:00;8.80;;;4.30;;
6029;SDS011;3043;42.682;23.376;2023-02-03T16:30:14;7.50;;;4.30;;
6029;SDS011;3043;42.682;23.376;2023-02-03T16:35:52;8.33;;;4.00;;
6029;SDS011;3043;42.682;23.376;2023-02-03T16:38:43;9.10;;;4.43;;
6029;SDS011;3043;42.682;23.376;2023-02-03T16:41:28;8.73;;;4.70;;
6029;SDS011;3043;42.682;23.376;2023-02-03T16:44:14;8.50;;;5.00;;
6029;SDS011;3043;42.682;23.376;2023-02-03T16:46:58;10.47;;;4.90;;
6029;SDS011;3043;42.682;23.376;2023-02-03T16:49:42;8.20;;;4.53;;
6029;SDS011;3043;42.682;23.376;2023-02-03T16:52:26;7.73;;;4.37;;
6029;SDS011;3043;42.682;23.376;2023-02-03T16:54:51;7.07;;;4.33;;
6029;SDS011;3043;42.682;23.376;2023-02-03T16:57:17;9.47;;;4.70;;
6029;SDS011;3043;42.682;23.376;2023-02-03T16:59:42;9.63;;;4.80;;
6029;SDS011;3043;42.682;23.376;2023-02-03T17:02:09;9.13;;;5.30;;
6029;SDS011;3043;42.682;23.376;2023-02-03T17:04:34;9.60;;;5.10;;
6029;SDS011;3043;42.682;23.376;2023-02-03T17:07:00;8.67;;;4.97;;
6029;SDS011;3043;42.682;23.376;2023-02-03T17:09:26;10.37;;;5.93;;
6029;SDS011;3043;42.682;23.376;2023-02-03T17:11:52;9.93;;;5.57;;
6029;SDS011;3043;42.682;23.376;2023-02-03T17:14:18;8.63;;;5.10;;
6029;SDS011;3043;42.682;23.376;2023-02-03T17:16:44;10.33;;;5.67;;
6029;SDS011;3043;42.682;23.376;2023-02-03T17:19:10;8.70;;;5.00;;
6029;SDS011;3043;42.682;23.376;2023-02-03T17:21:36;10.53;;;5.10;;
6029;SDS011;3043;42.682;23.376;2023-02-03T17:24:01;11.77;;;5.30;;
6029;SDS011;3043;42.682;23.376;2023-02-03T17:26:27;10.17;;;5.50;;
6029;SDS011;3043;42.682;23.376;2023-02-03T17:28:52;11.57;;;5.70;;
6029;SDS011;3043;42.682;23.376;2023-02-03T17:31:18;10.63;;;5.83;;
6029;SDS011;3043;42.682;23.376;2023-02-03T17:33:45;11.80;;;6.50;;
6029;SDS011;3043;42.682;23.376;2023-02-03T17:36:15;10.67;;;6.57;;
6029;SDS011;3043;42.682;23.376;2023-02-03T17:38:47;11.57;;;6.40;;
6029;SDS011;3043;42.682;23.376;2023-02-03T17:41:19;15.87;;;7.77;;
6029;SDS011;3043;42.682;23.376;2023-02-03T17:43:46;13.37;;;7.63;;
6029;SDS011;3043;42.682;23.376;2023-02-03T17:46:17;12.47;;;7.30;;
6029;SDS011;3043;42.682;23.376;2023-02-03T17:48:44;19.53;;;7.30;;
6029;SDS011;3043;42.682;23.376;2023-02-03T17:51:11;14.13;;;7.93;;
6029;SDS011;3043;42.682;23.376;2023-02-03T17:53:44;16.50;;;6.90;;
6029;SDS011;3043;42.682;23.376;2023-02-03T17:56:15;11.87;;;7.20;;
6029;SDS011;3043;42.682;23.376;2023-02-03T17:58:53;11.50;;;6.97;;
6029;SDS011;3043;42.682;23.376;2023-02-03T18:01:20;12.70;;;6.43;;
6029;SDS011;3043;42.682;23.376;2023-02-03T18:03:46;16.17;;;7.00;;
6029;SDS011;3043;42.682;23.376;2023-02-03T18:06:14;12.60;;;7.00;;
6029;SDS011;3043;42.682;23.376;2023-02-03T18:08:41;13.93;;;7.63;;
6029;SDS011;3043;42.682;23.376;2023-02-03T18:11:07;17.50;;;9.27;;